createdAt,value
2023-05-05T04:02:33.629Z,8.9
2023-05-05T04:42:41.487Z,9
2023-05-05T07:42:33.265Z,10.1
2023-05-05T08:02:33.282Z,10
2023-05-05T08:22:33.191Z,10.1
2023-05-05T08:42:38.075Z,10.4
2023-05-05T09:02:41.250Z,10.4
2023-05-05T09:22:33.093Z,10.3
2023-05-05T09:42:33.082Z,10.2
2023-05-05T10:02:33.128Z,10.2
2023-05-05T10:22:33.029Z,10.2
2023-05-05T10:42:33.157Z,9.7
2023-05-05T11:02:32.959Z,10.4
2023-05-05T11:22:32.920Z,9.8
2023-05-05T11:42:32.893Z,8.5
2023-05-05T12:02:40.934Z,9
2023-05-05T12:42:32.794Z,10.2
2023-05-05T13:02:32.817Z,9.7
2023-05-05T13:22:40.926Z,9.8
2023-05-05T13:42:32.734Z,9.7
2023-05-05T14:02:32.741Z,10.1
2023-05-05T14:22:32.590Z,10.4
2023-05-05T15:02:32.691Z,9.7
2023-05-05T15:22:32.761Z,10.5
2023-05-05T15:42:32.561Z,11
2023-05-05T16:02:32.743Z,11.1
2023-05-05T16:22:32.500Z,10.9
2023-05-05T16:42:32.476Z,11
2023-05-05T17:02:32.262Z,10.7
2023-05-05T17:22:32.585Z,10.7
2023-05-05T17:42:32.199Z,10.5
2023-05-05T18:02:32.537Z,10.6
2023-05-05T18:42:32.260Z,10.6
2023-05-05T19:02:32.330Z,10.4
2023-05-05T19:22:32.257Z,10.4
2023-05-05T19:42:32.254Z,10.1
2023-05-05T20:02:33.362Z,9.8
2023-05-05T20:22:32.160Z,9.7
2023-05-05T20:42:32.174Z,9.7
2023-05-05T21:42:32.082Z,9.3
2023-05-05T22:02:32.301Z,9.4
2023-05-05T22:22:32.057Z,9.5
2023-05-05T22:42:31.799Z,9.6
2023-05-05T23:02:32.024Z,9.6
2023-05-05T23:22:31.967Z,9.6
2023-05-05T23:42:31.966Z,9.5
